Niuzhuang, China
Current Conditions -  °F | °C
As of 12:00 PM on Friday 31 Oct 2014 (Local Time) from ZYTX Reporting Station
Smoke Smoke  
Wind Chill: 50°   Ceiling: 3000
Heat Index: 50°   Visibility: 0.37mi
Dew Point: 39°   Wind: 4mph
Humidity: 66%   Direction: 330°NNW
Pressure: 30.15"   Gusts: NA
Location:  40.97°N, 122.53°E
Report Text: ZYTX 310400Z 33002MPS 280V360 0600 R06/0900N FU SCT010OVC03010/04 Q1021 NOSIG
Loading
Personal Weather Stations






























Interactive Weather Map
Tropical Storm Tracking
New forecast layout! Learn more

10-Day Weather Forecast

Advertisements
Track Severe Weather on mobile